createdAt,value
2023-02-18T00:00:15.353Z,96069.06
2023-02-18T00:02:41.954Z,96066.81
2023-02-18T00:05:08.329Z,96066.50
2023-02-18T00:07:34.826Z,96069.72
2023-02-18T00:10:03.755Z,96062.13
2023-02-18T00:12:30.127Z,96059.63
2023-02-18T00:14:57.508Z,96057.00
2023-02-18T00:17:23.965Z,96051.84
2023-02-18T00:19:53.286Z,96046.00
2023-02-18T00:22:19.719Z,96047.56
2023-02-18T00:24:46.091Z,96058.34
2023-02-18T00:27:14.871Z,96051.59
2023-02-18T00:29:45.564Z,96056.63
2023-02-18T00:32:14.337Z,96045.66
2023-02-18T00:34:44.366Z,96038.97
2023-02-18T00:37:10.786Z,96046.03
2023-02-18T00:39:37.566Z,96044.34
2023-02-18T00:42:04.168Z,96046.03
2023-02-18T00:44:30.655Z,96044.34
2023-02-18T00:46:59.848Z,96051.28
2023-02-18T00:49:29.391Z,96047.94
2023-02-18T00:51:57.140Z,96045.31
2023-02-18T00:54:23.739Z,96046.28
2023-02-18T00:56:50.094Z,96046.75
2023-02-18T00:59:20.950Z,96053.19
2023-02-18T01:01:49.672Z,96054.38
2023-02-18T01:04:16.090Z,96051.88
2023-02-18T01:06:42.427Z,96044.38
2023-02-18T01:09:08.762Z,96042.59
2023-02-18T01:11:35.155Z,96039.13
2023-02-18T01:14:01.995Z,96041.25
2023-02-18T01:16:31.448Z,96041.13
2023-02-18T01:18:57.865Z,96039.50
2023-02-18T01:21:24.267Z,96042.25
2023-02-18T01:23:50.998Z,96042.59
2023-02-18T01:26:19.442Z,96044.84
2023-02-18T01:28:46.172Z,96051.84
2023-02-18T01:31:12.890Z,96046.75
2023-02-18T01:33:39.328Z,96050.06
2023-02-18T01:36:05.954Z,96040.31
2023-02-18T01:38:32.491Z,96049.94
2023-02-18T01:41:06.417Z,96038.53
2023-02-18T01:43:35.185Z,96048.75
2023-02-18T01:46:04.306Z,96045.78
2023-02-18T01:51:24.650Z,96035.06
2023-02-18T01:53:55.414Z,96033.50
2023-02-18T01:56:25.487Z,96025.53
2023-02-18T01:58:52.871Z,96021.03
2023-02-18T02:01:19.317Z,96021.25
2023-02-18T02:03:46.565Z,96016.72
2023-02-18T02:06:13.463Z,96015.53
2023-02-18T02:08:40.038Z,96015.53
2023-02-18T02:11:06.399Z,96017.78
2023-02-18T02:13:35.903Z,96020.03
2023-02-18T02:16:04.931Z,96020.31
2023-02-18T02:18:31.610Z,96015.06
2023-02-18T02:20:59.228Z,96011.97
2023-02-18T02:23:25.609Z,96010.50
2023-02-18T02:25:56.535Z,96013.97
2023-02-18T02:28:23.902Z,96018.13
2023-02-18T02:30:50.242Z,96010.03
2023-02-18T02:33:16.741Z,96004.66
2023-02-18T02:35:45.640Z,96012.19
2023-02-18T02:38:11.986Z,96006.69
2023-02-18T02:40:38.364Z,95998.59
2023-02-18T02:43:04.790Z,96002.53
2023-02-18T02:45:31.205Z,96002.97
2023-02-18T02:47:57.683Z,96000.13
2023-02-18T02:50:24.241Z,96002.97
2023-02-18T02:52:53.345Z,95991.06
2023-02-18T02:55:19.809Z,95991.19
2023-02-18T02:57:48.511Z,95994.41
2023-02-18T03:00:15.722Z,95996.09
2023-02-18T03:02:42.161Z,95989.06
2023-02-18T03:05:08.572Z,95988.94
2023-02-18T03:07:35.023Z,95981.75
2023-02-18T03:10:01.669Z,95989.28
2023-02-18T03:12:28.594Z,95984.59
2023-02-18T03:14:54.944Z,95988.53
2023-02-18T03:17:26.896Z,95975.88
2023-02-18T03:19:53.235Z,95974.78
2023-02-18T03:22:19.977Z,95978.09
2023-02-18T03:24:46.436Z,95977.88
2023-02-18T03:27:13.196Z,95982.06
2023-02-18T03:29:39.824Z,95980.13
2023-02-18T03:32:09.595Z,95981.78
2023-02-18T03:34:36.217Z,95982.06
2023-02-18T03:37:02.593Z,95973.06
2023-02-18T03:39:29.299Z,95965.19
2023-02-18T03:41:55.666Z,95968.66
2023-02-18T03:44:24.479Z,95970.44
2023-02-18T03:46:50.906Z,95971.53
2023-02-18T03:49:17.237Z,95979.78
2023-02-18T03:51:43.587Z,95980.03
2023-02-18T03:54:10.952Z,95976.59
2023-02-18T03:56:39.439Z,95971.34
2023-02-18T03:59:06.083Z,95977.28
2023-02-18T04:01:32.434Z,95976.19
2023-02-18T04:04:00.954Z,95971.78
2023-02-18T04:06:27.473Z,95968.22
2023-02-18T04:08:53.889Z,95969.72
2023-02-18T04:11:22.915Z,95967.72
2023-02-18T04:13:49.338Z,95971.75
2023-02-18T04:16:15.750Z,95971.84
2023-02-18T04:18:44.306Z,95973.91
2023-02-18T04:21:12.766Z,95969.38
2023-02-18T04:23:39.153Z,95982.13
2023-02-18T04:26:05.782Z,95987.09
2023-02-18T04:28:32.164Z,95980.66
2023-02-18T04:30:59.702Z,95989.09
2023-02-18T04:33:26.194Z,95986.25
2023-02-18T04:35:59.994Z,95987.78
2023-02-18T04:38:26.329Z,95982.25
2023-02-18T04:40:52.670Z,95977.59
2023-02-18T04:43:19.292Z,95974.59
2023-02-18T04:45:45.737Z,95978.75
2023-02-18T04:48:12.137Z,95971.44
2023-02-18T04:50:38.917Z,95972.53
2023-02-18T04:53:05.410Z,95967.69
2023-02-18T04:55:32.184Z,95964.72
2023-02-18T04:57:58.884Z,95961.75
2023-02-18T05:00:25.255Z,95959.53
2023-02-18T05:02:53.696Z,95961.69
2023-02-18T05:05:22.643Z,95963.03
2023-02-18T05:07:51.667Z,95963.16
2023-02-18T05:10:18.167Z,95958.06
2023-02-18T05:12:44.810Z,95961.69
2023-02-18T05:15:13.525Z,95960.19
2023-02-18T05:17:40.076Z,95959.84
2023-02-18T05:20:08.839Z,95953.38
2023-02-18T05:22:40.500Z,95959.94
2023-02-18T05:25:14.012Z,95965.31
2023-02-18T05:27:41.668Z,95966.38
2023-02-18T05:30:08.027Z,95958.78
2023-02-18T05:32:34.425Z,95954.59
2023-02-18T05:35:00.829Z,95959.00
2023-02-18T05:37:27.208Z,95954.13
2023-02-18T05:40:00.975Z,95954.25
2023-02-18T05:42:27.305Z,95945.94
2023-02-18T05:44:53.699Z,95943.78
2023-02-18T05:47:20.515Z,95945.91
2023-02-18T05:49:47.887Z,95947.59
2023-02-18T05:52:14.363Z,95943.81
2023-02-18T05:54:41.319Z,95943.56
2023-02-18T05:57:07.925Z,95950.22
2023-02-18T05:59:34.255Z,95953.81
2023-02-18T06:02:01.947Z,95956.44
2023-02-18T06:04:29.625Z,95955.94
2023-02-18T06:06:58.016Z,95957.38
2023-02-18T06:09:24.407Z,95956.66
2023-02-18T06:11:53.025Z,95961.88
2023-02-18T06:14:19.587Z,95961.38
2023-02-18T06:16:47.527Z,95966.63
2023-02-18T06:19:13.930Z,95968.91
2023-02-18T06:21:40.599Z,95971.16
2023-02-18T06:24:06.963Z,95968.19
2023-02-18T06:26:33.405Z,95963.16
2023-02-18T06:29:06.915Z,95967.56
2023-02-18T06:31:35.814Z,95960.66
2023-02-18T06:34:02.434Z,95965.06
2023-02-18T06:36:29.027Z,95963.28
2023-02-18T06:38:57.425Z,95970.91
2023-02-18T06:41:24.093Z,95975.19
2023-02-18T06:43:50.440Z,95971.63
2023-02-18T06:46:16.815Z,95973.38
2023-02-18T06:48:43.205Z,95970.16
2023-02-18T06:51:10.418Z,95968.50
2023-02-18T06:53:37.668Z,95965.41
2023-02-18T06:56:04.595Z,95961.00
2023-02-18T06:58:30.978Z,95964.94
2023-02-18T07:00:57.615Z,95960.41
2023-02-18T07:03:24.059Z,95966.13
2023-02-18T07:05:50.485Z,95958.06
2023-02-18T07:08:16.927Z,95967.56
2023-02-18T07:10:43.490Z,95967.47
2023-02-18T07:13:09.875Z,95971.41
2023-02-18T07:15:36.310Z,95964.97
2023-02-18T07:18:02.695Z,95961.38
2023-02-18T07:20:29.470Z,95964.72
2023-02-18T07:22:57.167Z,95960.84
2023-02-18T07:25:25.101Z,95952.97
2023-02-18T07:27:51.611Z,95955.22
2023-02-18T07:30:19.768Z,95958.34
2023-02-18T07:32:46.975Z,95955.47
2023-02-18T07:35:13.614Z,95959.97
2023-02-18T07:37:39.977Z,95957.38
2023-02-18T07:40:06.448Z,95964.50
2023-02-18T07:42:32.825Z,95961.16
2023-02-18T07:45:01.474Z,95965.69
2023-02-18T07:47:30.090Z,95960.22
2023-02-18T07:49:56.657Z,95956.31
2023-02-18T07:52:23.079Z,95960.94
2023-02-18T07:54:49.445Z,95971.44
2023-02-18T07:57:15.964Z,95968.56
2023-02-18T07:59:42.455Z,95965.81
2023-02-18T08:02:09.048Z,95969.53
2023-02-18T08:04:35.811Z,95961.88
2023-02-18T08:07:02.451Z,95958.28
2023-02-18T08:09:28.773Z,95958.16
2023-02-18T08:11:55.162Z,95954.47
2023-02-18T08:14:21.506Z,95955.97
2023-02-18T08:16:50.225Z,95963.81
2023-02-18T08:19:16.639Z,95958.66
2023-02-18T08:21:45.957Z,95965.53
2023-02-18T08:24:12.402Z,95958.44
2023-02-18T08:26:54.556Z,95959.91
2023-02-18T08:29:26.315Z,95954.34
2023-02-18T08:31:55.247Z,95956.22
2023-02-18T08:34:21.630Z,95952.47
2023-02-18T08:36:47.954Z,95944.84
2023-02-18T08:39:14.290Z,95959.31
2023-02-18T08:41:45.616Z,95945.41
2023-02-18T08:44:12.188Z,95947.53
2023-02-18T08:46:39.110Z,95951.44
2023-02-18T08:49:08.253Z,95941.88
2023-02-18T08:51:34.597Z,95943.53
2023-02-18T08:54:00.996Z,95942.84
2023-02-18T08:56:27.384Z,95941.13
2023-02-18T08:58:53.774Z,95934.03
2023-02-18T09:01:20.310Z,95941.06
2023-02-18T09:03:46.703Z,95932.84
2023-02-18T09:06:13.850Z,95935.44
2023-02-18T09:08:40.238Z,95930.75
2023-02-18T09:11:06.892Z,95934.63
2023-02-18T09:13:33.401Z,95936.22
2023-02-18T09:16:02.040Z,95937.53
2023-02-18T09:18:28.529Z,95936.25
2023-02-18T09:20:54.906Z,95942.31
2023-02-18T09:23:21.552Z,95946.31
2023-02-18T09:25:48.300Z,95943.13
2023-02-18T09:28:14.644Z,95947.66
2023-02-18T09:30:41.851Z,95933.09
2023-02-18T09:33:08.262Z,95933.81
2023-02-18T09:35:34.637Z,95939.91
2023-02-18T09:38:00.980Z,95929.63
2023-02-18T09:40:27.357Z,95930.69
2023-02-18T09:42:53.730Z,95923.97
2023-02-18T09:45:20.132Z,95923.88
2023-02-18T09:47:46.488Z,95919.97
2023-02-18T09:50:12.877Z,95924.84
2023-02-18T09:52:39.258Z,95923.25
2023-02-18T09:55:05.784Z,95933.84
2023-02-18T09:57:32.186Z,95926.75
2023-02-18T09:59:58.529Z,95930.75
2023-02-18T10:02:24.895Z,95936.06
2023-02-18T10:04:51.348Z,95933.41
2023-02-18T10:07:17.721Z,95931.09
2023-02-18T10:09:44.133Z,95940.72
2023-02-18T10:12:10.573Z,95933.25
2023-02-18T10:14:36.976Z,95943.88
2023-02-18T10:17:03.322Z,95941.53
2023-02-18T10:19:32.078Z,95944.41
2023-02-18T10:21:58.444Z,95939.06
2023-02-18T10:24:25.879Z,95945.38
2023-02-18T10:26:52.211Z,95949.84
2023-02-18T10:29:21.503Z,95941.34
2023-02-18T10:31:48.378Z,95943.03
2023-02-18T10:34:17.149Z,95939.06
2023-02-18T10:36:43.562Z,95947.34
2023-02-18T10:39:09.914Z,95936.06
2023-02-18T10:41:36.244Z,95938.06
2023-02-18T10:44:02.703Z,95943.38
2023-02-18T10:46:29.386Z,95949.81
2023-02-18T10:48:55.847Z,95942.59
2023-02-18T10:51:22.556Z,95950.22
2023-02-18T10:53:48.940Z,95951.69
2023-02-18T10:56:17.684Z,95955.59
2023-02-18T10:58:44.231Z,95953.81
2023-02-18T11:01:10.819Z,95956.41
2023-02-18T11:03:37.438Z,95951.53
2023-02-18T11:06:03.818Z,95946.97
2023-02-18T11:08:30.229Z,95937.28
2023-02-18T11:10:56.587Z,95939.53
2023-02-18T11:13:23.358Z,95937.94
2023-02-18T11:15:49.988Z,95935.56
2023-02-18T11:18:16.579Z,95926.44
2023-02-18T11:20:43.001Z,95937.25
2023-02-18T11:23:10.573Z,95930.00
2023-02-18T11:25:36.939Z,95925.94
2023-02-18T11:28:03.650Z,95916.00
2023-02-18T11:30:30.550Z,95916.59
2023-02-18T11:32:57.128Z,95905.63
2023-02-18T11:35:24.032Z,95903.94
2023-02-18T11:37:50.635Z,95899.81
2023-02-18T11:40:17.043Z,95885.63
2023-02-18T11:42:43.398Z,95893.06
2023-02-18T11:45:14.032Z,95898.22
2023-02-18T11:47:41.425Z,95882.66
2023-02-18T11:50:07.765Z,95877.91
2023-02-18T11:52:35.195Z,95867.50
2023-02-18T11:55:01.770Z,95857.34
2023-02-18T11:57:28.176Z,95851.09
2023-02-18T11:59:54.530Z,95841.28
2023-02-18T12:02:21.028Z,95852.47
2023-02-18T12:04:47.661Z,95835.66
2023-02-18T12:07:14.095Z,95834.03
2023-02-18T12:09:40.450Z,95829.47
2023-02-18T12:12:07.199Z,95826.97
2023-02-18T12:14:33.754Z,95821.63
2023-02-18T12:17:00.230Z,95824.03
2023-02-18T12:19:26.642Z,95819.78
2023-02-18T12:21:53.515Z,95818.50
2023-02-18T12:24:19.894Z,95807.63
2023-02-18T12:26:46.397Z,95805.34
2023-02-18T12:29:12.781Z,95809.09
2023-02-18T12:31:39.274Z,95792.88
2023-02-18T12:34:08.178Z,95792.91
2023-02-18T12:36:34.566Z,95793.81
2023-02-18T12:39:02.188Z,95796.13
2023-02-18T12:41:33.009Z,95788.31
2023-02-18T12:44:02.046Z,95792.03
2023-02-18T12:46:28.818Z,95783.53
2023-02-18T12:48:55.429Z,95776.94
2023-02-18T12:51:25.931Z,95776.09
2023-02-18T12:53:52.559Z,95781.84
2023-02-18T12:56:18.986Z,95765.31
2023-02-18T12:58:45.359Z,95780.91
2023-02-18T13:01:11.711Z,95780.91
2023-02-18T13:03:38.557Z,95776.47
2023-02-18T13:06:04.908Z,95759.09
2023-02-18T13:08:33.558Z,95764.63
2023-02-18T13:11:00.260Z,95762.13
2023-02-18T13:13:26.717Z,95761.78
2023-02-18T13:15:54.332Z,95768.31
2023-02-18T13:18:24.765Z,95761.59
2023-02-18T13:20:51.170Z,95758.09
2023-02-18T13:23:17.524Z,95760.13
2023-02-18T13:25:44.029Z,95751.97
2023-02-18T13:28:10.694Z,95743.63
2023-02-18T13:30:37.129Z,95745.59
2023-02-18T13:33:03.996Z,95742.03
2023-02-18T13:35:30.487Z,95738.72
2023-02-18T13:37:56.974Z,95729.75
2023-02-18T13:40:23.349Z,95736.44
2023-02-18T13:42:49.753Z,95726.22
2023-02-18T13:45:16.149Z,95731.56
2023-02-18T13:47:42.655Z,95726.59
2023-02-18T13:50:10.049Z,95715.97
2023-02-18T13:52:36.471Z,95721.56
2023-02-18T13:55:03.183Z,95718.44
2023-02-18T13:57:32.106Z,95727.63
2023-02-18T13:59:58.457Z,95721.75
2023-02-18T14:02:25.008Z,95709.34
2023-02-18T14:04:51.451Z,95714.47
2023-02-18T14:07:17.787Z,95719.75
2023-02-18T14:09:44.118Z,95705.88
2023-02-18T14:12:10.484Z,95717.53
2023-02-18T14:14:37.309Z,95708.16
2023-02-18T14:17:06.055Z,95710.00
2023-02-18T14:19:32.648Z,95718.66
2023-02-18T14:21:59.037Z,95701.72
2023-02-18T14:24:25.383Z,95695.13
2023-02-18T14:26:51.948Z,95690.34
2023-02-18T14:29:19.247Z,95701.00
2023-02-18T14:31:45.797Z,95676.84
2023-02-18T14:34:12.478Z,95685.13
2023-02-18T14:36:38.842Z,95681.34
2023-02-18T14:39:05.204Z,95684.59
2023-02-18T14:41:34.105Z,95679.16
2023-02-18T14:44:00.596Z,95684.41
2023-02-18T14:46:27.103Z,95680.66
2023-02-18T14:48:54.540Z,95680.16
2023-02-18T14:51:20.885Z,95670.75
2023-02-18T14:53:47.263Z,95670.69
2023-02-18T14:56:16.249Z,95668.56
2023-02-18T14:58:42.644Z,95655.34
2023-02-18T15:01:11.994Z,95663.00
2023-02-18T15:03:38.450Z,95655.94
2023-02-18T15:06:08.316Z,95658.31
2023-02-18T15:08:34.714Z,95652.97
2023-02-18T15:11:01.336Z,95657.56
2023-02-18T15:13:28.896Z,95651.09
2023-02-18T15:15:55.289Z,95653.94
2023-02-18T15:18:21.696Z,95644.56
2023-02-18T15:20:48.201Z,95639.28
2023-02-18T15:23:14.652Z,95633.09
2023-02-18T15:25:41.309Z,95634.13
2023-02-18T15:28:07.694Z,95635.88
2023-02-18T15:30:35.694Z,95630.03
2023-02-18T15:33:04.426Z,95613.81
2023-02-18T15:35:30.779Z,95615.72
2023-02-18T15:37:57.122Z,95621.25
2023-02-18T15:40:23.510Z,95616.56
2023-02-18T15:42:49.900Z,95622.25
2023-02-18T15:45:16.329Z,95614.09
2023-02-18T15:47:43.143Z,95621.59
2023-02-18T15:50:09.983Z,95614.69
2023-02-18T15:52:36.360Z,95623.16
2023-02-18T15:55:02.840Z,95615.38
2023-02-18T15:57:29.236Z,95614.81
2023-02-18T15:59:55.839Z,95605.25
2023-02-18T16:02:22.180Z,95608.47
2023-02-18T16:04:48.624Z,95608.94
2023-02-18T16:07:15.464Z,95608.59
2023-02-18T16:09:43.162Z,95601.91
2023-02-18T16:12:09.500Z,95596.69
2023-02-18T16:14:36.064Z,95603.38
2023-02-18T16:17:02.412Z,95602.00
2023-02-18T16:19:28.884Z,95601.56
2023-02-18T16:21:55.244Z,95609.84
2023-02-18T16:24:23.666Z,95598.25
2023-02-18T16:26:52.226Z,95600.28
2023-02-18T16:29:18.960Z,95600.38
2023-02-18T16:31:45.441Z,95601.22
2023-02-18T16:34:12.855Z,95606.53
2023-02-18T16:36:39.488Z,95605.44
2023-02-18T16:39:06.870Z,95605.81
2023-02-18T16:41:33.210Z,95607.31
2023-02-18T16:44:00.036Z,95603.09
2023-02-18T16:46:26.745Z,95602.38
2023-02-18T16:48:53.352Z,95605.78
2023-02-18T16:51:19.802Z,95615.59
2023-02-18T16:53:46.199Z,95613.28
2023-02-18T16:56:12.760Z,95611.63
2023-02-18T16:58:40.700Z,95610.88
2023-02-18T17:01:07.343Z,95610.94
2023-02-18T17:03:33.781Z,95608.88
2023-02-18T17:06:00.225Z,95619.75
2023-02-18T17:08:26.839Z,95613.41
2023-02-18T17:10:53.461Z,95611.00
2023-02-18T17:13:19.891Z,95616.38
2023-02-18T17:15:47.857Z,95608.16
2023-02-18T17:18:14.357Z,95617.19
2023-02-18T17:20:41.825Z,95614.91
2023-02-18T17:23:08.553Z,95623.41
2023-02-18T17:25:35.220Z,95630.75
2023-02-18T17:28:01.619Z,95625.00
2023-02-18T17:30:30.350Z,95626.56
2023-02-18T17:32:56.729Z,95629.59
2023-02-18T17:35:23.428Z,95628.97
2023-02-18T17:37:49.777Z,95630.16
2023-02-18T17:40:16.449Z,95632.84
2023-02-18T17:42:42.872Z,95636.47
2023-02-18T17:45:11.459Z,95630.22
2023-02-18T17:47:39.463Z,95630.91
2023-02-18T17:50:05.833Z,95634.53
2023-02-18T17:52:32.906Z,95640.16
2023-02-18T17:55:07.189Z,95633.53
2023-02-18T17:57:33.610Z,95634.34
2023-02-18T18:00:00.993Z,95632.53
2023-02-18T18:02:28.443Z,95636.50
2023-02-18T18:04:55.623Z,95641.59
2023-02-18T18:07:24.326Z,95645.88
2023-02-18T18:09:50.667Z,95636.94
2023-02-18T18:12:17.268Z,95640.41
2023-02-18T18:14:43.825Z,95641.06
2023-02-18T18:17:10.158Z,95637.56
2023-02-18T18:19:36.532Z,95644.31
2023-02-18T18:22:02.908Z,95651.03
2023-02-18T18:24:29.299Z,95652.84
2023-02-18T18:26:55.676Z,95653.75
2023-02-18T18:29:22.066Z,95646.75
2023-02-18T18:31:48.475Z,95660.06
2023-02-18T18:34:15.083Z,95659.44
2023-02-18T18:36:41.421Z,95658.22
2023-02-18T18:39:07.797Z,95654.31
2023-02-18T18:41:34.212Z,95656.41
2023-02-18T18:44:00.620Z,95654.19
2023-02-18T18:46:27.378Z,95651.34
2023-02-18T18:48:53.730Z,95656.78
2023-02-18T18:51:20.070Z,95656.38
2023-02-18T18:53:46.449Z,95658.59
2023-02-18T18:56:12.802Z,95660.25
2023-02-18T18:58:39.261Z,95661.59
2023-02-18T19:01:05.720Z,95661.53
2023-02-18T19:03:32.155Z,95661.16
2023-02-18T19:05:59.561Z,95661.44
2023-02-18T19:08:27.051Z,95658.81
2023-02-18T19:10:53.425Z,95662.28
2023-02-18T19:13:19.841Z,95668.66
2023-02-18T19:15:46.729Z,95667.47
2023-02-18T19:18:13.319Z,95665.94
2023-02-18T19:20:40.870Z,95660.66
2023-02-18T19:23:08.714Z,95669.56
2023-02-18T19:25:35.280Z,95666.25
2023-02-18T19:28:04.116Z,95673.59
2023-02-18T19:30:30.761Z,95677.66
2023-02-18T19:32:57.114Z,95681.31
2023-02-18T19:35:23.481Z,95674.13
2023-02-18T19:37:50.156Z,95671.94
2023-02-18T19:40:16.500Z,95671.41
2023-02-18T19:42:43.101Z,95671.72
2023-02-18T19:45:09.514Z,95676.16
2023-02-18T19:47:35.865Z,95669.06
2023-02-18T19:50:02.277Z,95667.81
2023-02-18T19:52:28.686Z,95673.25
2023-02-18T19:54:55.046Z,95679.09
2023-02-18T19:57:22.491Z,95678.41
2023-02-18T19:59:48.838Z,95671.06
2023-02-18T20:02:15.175Z,95674.00
2023-02-18T20:04:48.977Z,95683.84
2023-02-18T20:07:15.709Z,95676.25
2023-02-18T20:09:42.082Z,95680.97
2023-02-18T20:12:08.461Z,95679.31
2023-02-18T20:14:35.953Z,95667.69
2023-02-18T20:17:02.304Z,95668.81
2023-02-18T20:19:30.384Z,95674.66
2023-02-18T20:22:00.396Z,95667.16
2023-02-18T20:24:26.731Z,95674.53
2023-02-18T20:26:53.099Z,95671.19
2023-02-18T20:29:19.801Z,95668.16
2023-02-18T20:31:46.212Z,95675.50
2023-02-18T20:34:14.045Z,95676.19
2023-02-18T20:36:40.446Z,95670.25
2023-02-18T20:39:16.194Z,95685.06
2023-02-18T20:41:42.848Z,95673.72
2023-02-18T20:44:09.196Z,95672.31
2023-02-18T20:46:35.565Z,95671.88
2023-02-18T20:49:01.902Z,95667.19
2023-02-18T20:51:28.341Z,95668.16
2023-02-18T20:53:54.670Z,95668.31
2023-02-18T20:56:21.043Z,95665.94
2023-02-18T20:58:47.396Z,95671.59
2023-02-18T21:01:13.787Z,95664.00
2023-02-18T21:03:40.693Z,95671.44
2023-02-18T21:06:07.070Z,95669.09
2023-02-18T21:08:33.396Z,95671.81
2023-02-18T21:10:59.778Z,95684.00
2023-02-18T21:13:26.126Z,95682.28
2023-02-18T21:15:52.487Z,95687.38
2023-02-18T21:18:18.952Z,95683.63
2023-02-18T21:20:45.325Z,95681.25
2023-02-18T21:23:11.715Z,95682.94
2023-02-18T21:25:38.093Z,95683.88
2023-02-18T21:28:04.882Z,95681.41
2023-02-18T21:30:31.721Z,95685.56
2023-02-18T21:32:58.716Z,95689.69
2023-02-18T21:35:28.287Z,95693.84
2023-02-18T21:37:54.665Z,95680.59
2023-02-18T21:40:21.587Z,95682.28
2023-02-18T21:42:48.093Z,95689.16
2023-02-18T21:45:14.670Z,95684.75
2023-02-18T21:47:41.010Z,95685.72
2023-02-18T21:50:07.725Z,95681.44
2023-02-18T21:52:34.065Z,95690.84
2023-02-18T21:55:00.457Z,95684.75
2023-02-18T21:57:26.936Z,95691.91
2023-02-18T21:59:55.738Z,95696.53
2023-02-18T22:02:22.267Z,95687.38
2023-02-18T22:04:51.804Z,95691.75
2023-02-18T22:07:18.497Z,95692.81
2023-02-18T22:09:48.627Z,95691.03
2023-02-18T22:12:15.338Z,95693.38
2023-02-18T22:14:41.901Z,95688.38
2023-02-18T22:17:08.494Z,95685.19
2023-02-18T22:19:34.935Z,95681.00
2023-02-18T22:22:03.966Z,95687.78
2023-02-18T22:24:30.670Z,95681.38
2023-02-18T22:26:57.909Z,95689.66
2023-02-18T22:29:24.289Z,95693.22
2023-02-18T22:31:50.791Z,95691.09
2023-02-18T22:34:18.336Z,95691.63
2023-02-18T22:36:44.675Z,95681.13
2023-02-18T22:39:11.086Z,95684.47
2023-02-18T22:41:39.504Z,95685.22
2023-02-18T22:44:07.036Z,95683.13
2023-02-18T22:46:33.421Z,95681.22
2023-02-18T22:49:00.988Z,95680.78
2023-02-18T22:51:27.388Z,95684.50
2023-02-18T22:53:53.744Z,95686.06
2023-02-18T22:56:20.188Z,95678.84
2023-02-18T22:58:46.557Z,95682.41
2023-02-18T23:01:13.412Z,95682.53
2023-02-18T23:03:39.918Z,95687.31
2023-02-18T23:06:07.591Z,95684.00
2023-02-18T23:08:33.954Z,95695.19
2023-02-18T23:11:00.393Z,95692.13
2023-02-18T23:13:27.948Z,95699.97
2023-02-18T23:16:01.434Z,95690.94
2023-02-18T23:18:28.392Z,95690.13
2023-02-18T23:20:54.737Z,95699.75
2023-02-18T23:23:21.151Z,95696.28
2023-02-18T23:25:47.696Z,95687.59
2023-02-18T23:28:14.081Z,95694.66
2023-02-18T23:30:40.597Z,95691.19
2023-02-18T23:33:06.998Z,95692.84
2023-02-18T23:35:36.490Z,95685.94
2023-02-18T23:38:02.829Z,95690.38
2023-02-18T23:40:29.427Z,95685.72
2023-02-18T23:42:56.358Z,95689.69
2023-02-18T23:45:23.725Z,95687.66
2023-02-18T23:47:50.710Z,95690.88
2023-02-18T23:50:17.264Z,95692.19
2023-02-18T23:52:45.235Z,95685.53
2023-02-18T23:55:14.324Z,95680.75
2023-02-18T23:57:40.781Z,95688.84
